Terminal Aerodrome Forecast
Issued by NWS

Current Version | Previous Version | Text Only | Print | Product List | Glossary On
Versions: 1 2 3 4 5 6 7 8 9 10 11 12 13 14 15 16
000
FTUS44 KLZK 200535
TAFHOT
TAF
KHOT 200535Z 2006/2106 16004KT P6SM VCSH SCT050 BKN150
     FM201000 VRB03KT P6SM SCT100 BKN250
     FM201800 19008G15KT P6SM VCTS BKN050CB BKN100 PROB30 2018/2024
      5SM -TSRA BKN035CB=

USA.gov is the U.S. government's official web portal to all federal, state and local government web resources and services.